createdAt,value
2023-02-11T00:01:33.073Z,129.90
2023-02-11T00:04:02.040Z,81.00
2023-02-11T00:06:31.995Z,84.00
2023-02-11T00:09:00.637Z,57.70
2023-02-11T00:11:32.271Z,57.90
2023-02-11T00:14:03.034Z,107.00
2023-02-11T00:16:32.561Z,83.30
2023-02-11T00:19:02.454Z,89.30
2023-02-11T00:21:30.432Z,62.80
2023-02-11T00:24:01.772Z,71.90
2023-02-11T00:26:32.638Z,72.40
2023-02-11T00:29:01.954Z,82.40
2023-02-11T00:31:33.297Z,68.80
2023-02-11T00:34:01.341Z,49.30
2023-02-11T00:36:30.443Z,57.80
2023-02-11T00:38:59.372Z,47.80
2023-02-11T00:41:27.372Z,53.20
2023-02-11T00:43:55.495Z,54.20
2023-02-11T00:46:23.622Z,52.90
2023-02-11T00:48:53.425Z,50.10
2023-02-11T00:51:22.625Z,50.90
2023-02-11T00:53:52.471Z,52.20
2023-02-11T00:56:21.068Z,56.00
2023-02-11T00:58:48.823Z,62.50
2023-02-11T01:01:18.510Z,54.80
2023-02-11T01:03:47.132Z,57.90
2023-02-11T01:06:16.031Z,74.20
2023-02-11T01:08:44.502Z,49.80
2023-02-11T01:11:19.355Z,52.80
2023-02-11T01:13:48.772Z,54.50
2023-02-11T01:16:17.946Z,58.90
2023-02-11T01:18:47.313Z,64.60
2023-02-11T01:21:16.227Z,54.70
2023-02-11T01:23:44.246Z,52.50
2023-02-11T01:26:13.778Z,47.40
2023-02-11T01:28:41.844Z,46.50
2023-02-11T01:31:09.655Z,50.80
2023-02-11T01:33:37.704Z,45.70
2023-02-11T01:36:08.035Z,47.40
2023-02-11T01:38:36.755Z,48.10
2023-02-11T01:41:10.346Z,44.10
2023-02-11T01:43:47.524Z,44.40
2023-02-11T01:46:38.400Z,40.20
2023-02-11T01:49:14.896Z,46.10
2023-02-11T01:51:59.172Z,49.60
2023-02-11T01:54:50.721Z,43.70
2023-02-11T01:57:23.518Z,48.40
2023-02-11T02:00:07.272Z,49.20
2023-02-11T02:03:00.777Z,51.60
2023-02-11T02:05:35.107Z,52.30
2023-02-11T02:08:12.179Z,44.70
2023-02-11T02:10:44.605Z,44.30
2023-02-11T02:13:13.015Z,43.60
2023-02-11T02:15:58.309Z,46.10
2023-02-11T02:18:46.452Z,47.20
2023-02-11T02:21:44.879Z,48.10
2023-02-11T02:24:37.849Z,45.80
2023-02-11T02:27:30.175Z,46.90
2023-02-11T02:30:22.916Z,53.40
2023-02-11T02:33:28.666Z,47.60
2023-02-11T02:36:14.832Z,49.50
2023-02-11T02:38:55.728Z,49.00
2023-02-11T02:41:29.033Z,47.80
2023-02-11T02:43:56.823Z,46.50
2023-02-11T02:46:24.829Z,50.20
2023-02-11T02:48:54.563Z,57.30
2023-02-11T02:51:47.949Z,56.10
2023-02-11T02:54:24.971Z,46.00
2023-02-11T02:56:56.340Z,47.90
2023-02-11T02:59:27.187Z,50.00
2023-02-11T03:02:11.028Z,45.40
2023-02-11T03:05:04.161Z,49.40
2023-02-11T03:07:38.140Z,49.60
2023-02-11T03:10:24.295Z,46.70
2023-02-11T03:12:54.397Z,47.80
2023-02-11T03:15:25.493Z,64.80
2023-02-11T03:17:56.291Z,47.40
2023-02-11T03:20:24.274Z,44.70
2023-02-11T03:23:03.371Z,44.60
2023-02-11T03:25:37.485Z,43.90
2023-02-11T03:28:13.941Z,46.90
2023-02-11T03:30:50.211Z,49.90
2023-02-11T03:36:02.426Z,44.60
2023-02-11T03:38:35.142Z,48.00
2023-02-11T03:41:07.058Z,46.70
2023-02-11T03:43:40.935Z,42.90
2023-02-11T03:46:11.010Z,48.90
2023-02-11T03:48:46.074Z,57.70
2023-02-11T03:51:15.950Z,48.50
2023-02-11T03:53:47.226Z,46.40
2023-02-11T03:56:19.699Z,43.40
2023-02-11T03:58:49.243Z,60.20
2023-02-11T04:01:17.229Z,51.40
2023-02-11T04:03:45.240Z,47.00
2023-02-11T04:06:13.116Z,47.50
2023-02-11T04:08:41.035Z,52.70
2023-02-11T04:11:09.105Z,46.90
2023-02-11T04:13:37.005Z,49.30
2023-02-11T04:16:05.163Z,51.50
2023-02-11T04:18:33.110Z,55.50
2023-02-11T04:21:00.982Z,61.90
2023-02-11T04:23:29.320Z,45.50
2023-02-11T04:25:57.161Z,48.50
2023-02-11T04:28:26.955Z,49.50
2023-02-11T04:30:56.311Z,58.80
2023-02-11T04:33:24.981Z,46.60
2023-02-11T04:35:53.022Z,50.30
2023-02-11T04:38:23.978Z,47.90
2023-02-11T04:40:51.857Z,47.80
2023-02-11T04:43:19.853Z,52.20
2023-02-11T04:45:47.816Z,47.00
2023-02-11T04:48:15.880Z,49.40
2023-02-11T04:50:43.691Z,54.00
2023-02-11T04:53:11.721Z,50.30
2023-02-11T04:55:39.652Z,54.30
2023-02-11T04:58:07.609Z,49.90
2023-02-11T05:00:35.428Z,50.10
2023-02-11T05:03:03.392Z,54.90
2023-02-11T05:05:31.636Z,54.40
2023-02-11T05:07:59.453Z,52.50
2023-02-11T05:10:27.604Z,52.60
2023-02-11T05:12:56.190Z,59.00
2023-02-11T05:15:24.265Z,50.90
2023-02-11T05:17:52.182Z,56.60
2023-02-11T05:20:20.212Z,52.10
2023-02-11T05:22:48.503Z,59.70
2023-02-11T05:25:16.405Z,60.20
2023-02-11T05:27:44.272Z,52.50
2023-02-11T05:30:12.626Z,55.80
2023-02-11T05:32:40.498Z,54.50
2023-02-11T05:35:09.528Z,53.30
2023-02-11T05:37:37.386Z,54.90
2023-02-11T05:40:06.054Z,57.60
2023-02-11T05:42:34.099Z,53.10
2023-02-11T05:45:01.957Z,52.00
2023-02-11T05:47:30.155Z,50.40
2023-02-11T05:49:58.086Z,60.20
2023-02-11T05:52:26.023Z,58.90
2023-02-11T05:54:53.988Z,57.10
2023-02-11T05:57:21.822Z,51.40
2023-02-11T05:59:49.660Z,57.30
2023-02-11T06:02:17.763Z,58.50
2023-02-11T06:04:45.709Z,53.70
2023-02-11T06:07:13.811Z,55.00
2023-02-11T06:09:41.746Z,55.80
2023-02-11T06:12:09.574Z,61.90
2023-02-11T06:14:37.433Z,57.00
2023-02-11T06:17:05.378Z,63.60
2023-02-11T06:19:33.353Z,61.90
2023-02-11T06:22:01.261Z,62.60
2023-02-11T06:24:51.343Z,62.40
2023-02-11T06:27:19.069Z,57.80
2023-02-11T06:29:48.003Z,64.90
2023-02-11T06:32:36.996Z,66.60
2023-02-11T06:35:03.864Z,60.60
2023-02-11T06:37:31.797Z,59.10
2023-02-11T06:39:59.599Z,62.60
2023-02-11T06:42:27.581Z,63.80
2023-02-11T06:44:55.560Z,62.50
2023-02-11T06:47:23.380Z,60.70
2023-02-11T06:49:51.303Z,59.10
2023-02-11T06:52:19.193Z,62.20
2023-02-11T06:54:47.130Z,64.50
2023-02-11T06:57:15.094Z,64.30
2023-02-11T06:59:42.966Z,62.50
2023-02-11T07:02:11.146Z,60.40
2023-02-11T07:04:39.170Z,59.90
2023-02-11T07:07:07.102Z,64.10
2023-02-11T07:09:35.189Z,62.90
2023-02-11T07:12:03.335Z,60.60
2023-02-11T07:14:31.339Z,63.50
2023-02-11T07:16:59.253Z,67.70
2023-02-11T07:19:27.262Z,61.40
2023-02-11T07:21:55.272Z,70.50
2023-02-11T07:24:23.559Z,60.50
2023-02-11T07:26:51.622Z,63.50
2023-02-11T07:29:19.528Z,67.60
2023-02-11T07:31:47.534Z,63.40
2023-02-11T07:34:15.648Z,63.50
2023-02-11T07:36:46.467Z,114.50
2023-02-11T07:39:17.545Z,69.70
2023-02-11T07:41:47.874Z,62.70
2023-02-11T07:44:15.879Z,81.80
2023-02-11T07:46:45.255Z,65.10
2023-02-11T07:49:13.358Z,66.30
2023-02-11T07:51:43.073Z,71.20
2023-02-11T07:54:11.502Z,63.70
2023-02-11T07:56:39.415Z,78.40
2023-02-11T07:59:07.399Z,67.90
2023-02-11T08:01:35.307Z,66.90
2023-02-11T08:04:04.007Z,65.60
2023-02-11T08:06:34.015Z,59.40
2023-02-11T08:09:07.234Z,64.70
2023-02-11T08:11:35.725Z,60.00
2023-02-11T08:14:03.546Z,64.30
2023-02-11T08:16:34.259Z,65.10
2023-02-11T08:19:05.718Z,126.20
2023-02-11T08:21:33.674Z,96.40
2023-02-11T08:24:03.216Z,152.00
2023-02-11T08:26:34.771Z,88.40
2023-02-11T08:29:08.726Z,70.30
2023-02-11T08:31:40.105Z,74.70
2023-02-11T08:34:08.456Z,76.60
2023-02-11T08:36:38.395Z,66.80
2023-02-11T08:39:19.158Z,69.20
2023-02-11T08:41:50.907Z,67.80
2023-02-11T08:44:20.337Z,62.30
2023-02-11T08:46:49.715Z,127.00
2023-02-11T08:49:17.614Z,230.40
2023-02-11T08:51:46.250Z,155.50
2023-02-11T08:54:15.074Z,150.30
2023-02-11T08:56:43.890Z,107.80
2023-02-11T08:59:15.677Z,90.10
2023-02-11T09:01:44.437Z,131.60
2023-02-11T09:04:13.083Z,122.60
2023-02-11T09:06:41.031Z,109.60
2023-02-11T09:09:13.642Z,99.10
2023-02-11T09:11:43.699Z,91.70
2023-02-11T09:14:22.277Z,73.80
2023-02-11T09:16:51.840Z,93.20
2023-02-11T09:19:21.139Z,218.00
2023-02-11T09:21:49.182Z,435.60
2023-02-11T09:24:17.178Z,329.30
2023-02-11T09:26:45.472Z,325.60
2023-02-11T09:29:13.733Z,363.40
2023-02-11T09:31:41.909Z,287.50
2023-02-11T09:34:11.362Z,119.70
2023-02-11T09:36:40.867Z,89.30
2023-02-11T09:39:14.400Z,265.70
2023-02-11T09:42:11.654Z,258.10
2023-02-11T09:44:40.083Z,199.60
2023-02-11T09:47:29.246Z,110.00
2023-02-11T09:50:04.701Z,84.20
2023-02-11T09:52:40.251Z,94.00
2023-02-11T09:55:25.177Z,366.50
2023-02-11T09:57:53.452Z,184.50
2023-02-11T10:00:34.107Z,213.90
2023-02-11T10:03:26.883Z,172.20
2023-02-11T10:06:25.708Z,81.40
2023-02-11T10:09:27.142Z,82.50
2023-02-11T10:12:07.512Z,211.50
2023-02-11T10:14:50.648Z,187.10
2023-02-11T10:17:46.928Z,178.50
2023-02-11T10:20:23.710Z,121.20
2023-02-11T10:23:19.680Z,62.30
2023-02-11T10:25:53.006Z,136.60
2023-02-11T10:28:30.149Z,321.20
2023-02-11T10:31:16.056Z,202.70
2023-02-11T10:33:50.054Z,328.60
2023-02-11T10:36:19.552Z,181.40
2023-02-11T10:38:47.541Z,119.80
2023-02-11T10:41:28.845Z,123.40
2023-02-11T10:43:57.375Z,136.10
2023-02-11T10:46:31.594Z,279.70
2023-02-11T10:49:00.141Z,227.20
2023-02-11T10:51:30.262Z,133.10
2023-02-11T10:54:04.338Z,163.60
2023-02-11T10:56:37.158Z,81.10
2023-02-11T10:59:14.528Z,76.30
2023-02-11T11:01:47.217Z,90.50
2023-02-11T11:04:30.772Z,110.60
2023-02-11T11:07:23.680Z,159.50
2023-02-11T11:09:59.791Z,119.00
2023-02-11T11:12:40.308Z,114.40
2023-02-11T11:15:22.176Z,64.40
2023-02-11T11:17:52.112Z,54.10
2023-02-11T11:20:25.376Z,119.00
2023-02-11T11:23:09.382Z,158.90
2023-02-11T11:25:41.613Z,132.60
2023-02-11T11:28:24.151Z,71.60
2023-02-11T11:30:55.328Z,246.70
2023-02-11T11:33:28.179Z,258.10
2023-02-11T11:35:59.056Z,176.30
2023-02-11T11:38:31.896Z,121.10
2023-02-11T11:41:24.196Z,186.10
2023-02-11T11:43:59.196Z,149.80
2023-02-11T11:46:33.647Z,122.60
2023-02-11T11:49:23.596Z,155.20
2023-02-11T11:52:11.557Z,120.80
2023-02-11T11:54:43.621Z,103.60
2023-02-11T11:57:18.520Z,146.90
2023-02-11T11:59:46.505Z,113.80
2023-02-11T12:02:20.406Z,107.80
2023-02-11T12:05:02.867Z,110.80
2023-02-11T12:07:40.345Z,144.80
2023-02-11T12:10:14.214Z,104.40
2023-02-11T12:12:53.761Z,144.90
2023-02-11T12:15:41.490Z,126.60
2023-02-11T12:18:33.356Z,65.50
2023-02-11T12:21:01.182Z,96.20
2023-02-11T12:24:01.505Z,84.80
2023-02-11T12:27:17.778Z,91.00
2023-02-11T12:30:17.254Z,148.20
2023-02-11T12:32:59.456Z,87.60
2023-02-11T12:35:33.402Z,72.40
2023-02-11T12:38:40.045Z,78.40
2023-02-11T12:41:50.595Z,111.30
2023-02-11T12:44:47.062Z,162.80
2023-02-11T12:47:36.886Z,81.60
2023-02-11T12:50:22.977Z,75.90
2023-02-11T12:53:04.519Z,92.10
2023-02-11T12:55:40.213Z,93.40
2023-02-11T12:58:16.855Z,73.80
2023-02-11T13:00:55.887Z,108.30
2023-02-11T13:03:53.850Z,123.00
2023-02-11T13:07:02.853Z,108.90
2023-02-11T13:09:38.852Z,118.30
2023-02-11T13:14:59.794Z,142.20
2023-02-11T13:17:40.913Z,109.50
2023-02-11T13:20:38.410Z,111.60
2023-02-11T13:23:21.186Z,111.30
2023-02-11T13:26:10.088Z,74.20
2023-02-11T13:29:04.832Z,168.00
2023-02-11T13:31:32.936Z,144.20
2023-02-11T13:34:01.008Z,128.60
2023-02-11T13:36:32.865Z,139.70
2023-02-11T13:39:04.552Z,147.50
2023-02-11T13:41:36.754Z,57.70
2023-02-11T13:44:09.308Z,152.30
2023-02-11T13:47:00.049Z,143.20
2023-02-11T13:49:42.751Z,130.30
2023-02-11T13:52:25.535Z,83.80
2023-02-11T13:54:56.963Z,65.00
2023-02-11T13:57:33.090Z,77.20
2023-02-11T14:00:36.669Z,66.50
2023-02-11T14:03:29.194Z,135.80
2023-02-11T14:06:28.447Z,143.90
2023-02-11T14:09:10.314Z,93.00
2023-02-11T14:11:41.813Z,113.80
2023-02-11T14:14:21.923Z,90.10
2023-02-11T14:17:28.430Z,52.00
2023-02-11T14:19:57.265Z,121.80
2023-02-11T14:22:53.642Z,149.30
2023-02-11T14:25:26.683Z,117.90
2023-02-11T14:28:27.083Z,108.50
2023-02-11T14:31:14.904Z,202.00
2023-02-11T14:33:58.335Z,52.40
2023-02-11T14:36:43.892Z,94.00
2023-02-11T14:39:52.784Z,204.40
2023-02-11T14:42:26.655Z,122.20
2023-02-11T14:44:58.641Z,103.70
2023-02-11T14:47:35.661Z,132.40
2023-02-11T14:50:04.964Z,43.60
2023-02-11T14:52:37.379Z,40.20
2023-02-11T14:55:17.774Z,78.70
2023-02-11T14:57:49.502Z,116.40
2023-02-11T15:00:21.090Z,114.10
2023-02-11T15:02:49.563Z,155.20
2023-02-11T15:05:29.122Z,104.50
2023-02-11T15:08:02.039Z,46.70
2023-02-11T15:10:35.537Z,41.60
2023-02-11T15:13:05.492Z,46.90
2023-02-11T15:15:36.552Z,101.80
2023-02-11T15:18:05.373Z,72.50
2023-02-11T15:20:34.003Z,43.00
2023-02-11T15:23:07.899Z,195.50
2023-02-11T15:25:44.061Z,247.20
2023-02-11T15:30:57.969Z,150.40
2023-02-11T15:33:30.110Z,188.80
2023-02-11T15:36:02.466Z,363.10
2023-02-11T15:38:30.965Z,684.40
2023-02-11T15:41:02.202Z,195.70
2023-02-11T15:43:53.319Z,182.00
2023-02-11T15:46:23.430Z,220.80
2023-02-11T15:48:54.260Z,97.50
2023-02-11T15:51:39.979Z,199.70
2023-02-11T15:54:21.357Z,304.60
2023-02-11T15:56:51.744Z,323.80
2023-02-11T15:59:25.873Z,227.80
2023-02-11T16:01:55.701Z,162.80
2023-02-11T16:04:26.402Z,194.70
2023-02-11T16:06:55.694Z,178.90
2023-02-11T16:09:35.438Z,506.10
2023-02-11T16:12:23.623Z,104.50
2023-02-11T16:14:51.685Z,211.80
2023-02-11T16:17:19.592Z,199.00
2023-02-11T16:19:50.883Z,140.50
2023-02-11T16:22:30.332Z,83.80
2023-02-11T16:25:00.064Z,83.70
2023-02-11T16:27:41.706Z,56.00
2023-02-11T16:30:38.146Z,93.60
2023-02-11T16:33:06.400Z,156.10
2023-02-11T16:35:34.277Z,127.00
2023-02-11T16:38:02.225Z,123.20
2023-02-11T16:40:30.209Z,111.40
2023-02-11T16:42:58.212Z,136.60
2023-02-11T16:45:26.884Z,121.40
2023-02-11T16:47:54.908Z,42.30
2023-02-11T16:50:25.450Z,43.40
2023-02-11T16:52:53.778Z,58.70
2023-02-11T16:55:22.368Z,104.20
2023-02-11T16:57:50.525Z,109.90
2023-02-11T17:00:18.908Z,113.40
2023-02-11T17:02:46.843Z,134.30
2023-02-11T17:05:22.991Z,73.90
2023-02-11T17:10:22.295Z,60.00
2023-02-11T17:12:51.282Z,58.60
2023-02-11T17:15:19.267Z,116.80
2023-02-11T17:17:48.247Z,49.70
2023-02-11T17:20:16.618Z,52.80
2023-02-11T17:22:44.489Z,48.10
2023-02-11T17:25:12.596Z,33.20
2023-02-11T17:27:40.798Z,37.20
2023-02-11T17:30:10.059Z,47.20
2023-02-11T17:32:38.304Z,34.50
2023-02-11T17:35:07.366Z,44.80
2023-02-11T17:37:35.217Z,43.40
2023-02-11T17:40:03.309Z,63.50
2023-02-11T17:42:31.543Z,51.90
2023-02-11T17:44:59.375Z,50.30
2023-02-11T17:47:27.346Z,46.50
2023-02-11T17:49:55.272Z,37.00
2023-02-11T17:52:24.437Z,37.80
2023-02-11T17:54:52.262Z,44.00
2023-02-11T17:57:20.320Z,42.70
2023-02-11T17:59:48.226Z,28.20
2023-02-11T18:02:16.029Z,24.90
2023-02-11T18:04:44.088Z,27.80
2023-02-11T18:07:12.352Z,25.80
2023-02-11T18:09:41.090Z,27.10
2023-02-11T18:12:10.796Z,33.10
2023-02-11T18:14:40.795Z,25.20
2023-02-11T18:17:09.350Z,30.20
2023-02-11T18:19:37.716Z,31.90
2023-02-11T18:22:05.731Z,24.10
2023-02-11T18:24:33.687Z,67.80
2023-02-11T18:27:01.499Z,32.40
2023-02-11T18:29:29.806Z,29.50
2023-02-11T18:31:58.316Z,38.10
2023-02-11T18:34:26.546Z,34.00
2023-02-11T18:36:54.407Z,28.70
2023-02-11T18:39:24.339Z,38.60
2023-02-11T18:41:56.810Z,38.20
2023-02-11T18:44:26.685Z,31.70
2023-02-11T18:46:54.852Z,36.10
2023-02-11T18:49:22.849Z,29.10
2023-02-11T18:51:50.916Z,25.80
2023-02-11T18:54:18.905Z,26.00
2023-02-11T18:56:46.799Z,38.50
2023-02-11T18:59:15.194Z,26.60
2023-02-11T19:01:46.870Z,23.40
2023-02-11T19:04:19.833Z,25.40
2023-02-11T19:06:49.817Z,27.30
2023-02-11T19:09:20.540Z,27.00
2023-02-11T19:11:51.389Z,25.80
2023-02-11T19:14:31.974Z,21.30
2023-02-11T19:17:06.787Z,26.00
2023-02-11T19:19:36.345Z,27.60
2023-02-11T19:22:10.507Z,20.80
2023-02-11T19:24:39.301Z,32.70
2023-02-11T19:27:07.284Z,25.00
2023-02-11T19:29:35.520Z,21.90
2023-02-11T19:32:06.008Z,20.60
2023-02-11T19:34:41.235Z,20.60
2023-02-11T19:37:12.821Z,20.30
2023-02-11T19:39:42.463Z,36.00
2023-02-11T19:42:11.307Z,32.40
2023-02-11T19:44:39.349Z,22.30
2023-02-11T19:47:07.535Z,22.70
2023-02-11T19:49:35.366Z,20.70
2023-02-11T19:52:03.544Z,20.80
2023-02-11T19:54:31.550Z,20.40
2023-02-11T19:56:59.566Z,26.80
2023-02-11T19:59:27.623Z,25.20
2023-02-11T20:01:55.507Z,21.20
2023-02-11T20:04:25.200Z,21.60
2023-02-11T20:06:53.134Z,24.80
2023-02-11T20:09:21.859Z,20.70
2023-02-11T20:11:50.085Z,24.30
2023-02-11T20:14:18.250Z,21.40
2023-02-11T20:16:49.732Z,23.20
2023-02-11T20:19:21.677Z,22.90
2023-02-11T20:21:53.765Z,22.60
2023-02-11T20:24:22.616Z,22.80
2023-02-11T20:26:55.258Z,18.90
2023-02-11T20:29:24.584Z,21.20
2023-02-11T20:31:54.042Z,21.40
2023-02-11T20:34:22.573Z,18.60
2023-02-11T20:36:54.295Z,30.50
2023-02-11T20:39:25.297Z,28.50
2023-02-11T20:41:54.547Z,28.70
2023-02-11T20:44:23.232Z,21.80
2023-02-11T20:46:54.325Z,19.40
2023-02-11T20:49:24.478Z,27.00
2023-02-11T20:51:54.042Z,22.70
2023-02-11T20:54:24.355Z,19.80
2023-02-11T20:56:54.073Z,27.10
2023-02-11T20:59:22.993Z,24.70
2023-02-11T21:01:54.309Z,25.40
2023-02-11T21:04:25.618Z,25.60
2023-02-11T21:06:56.996Z,39.90
2023-02-11T21:09:28.577Z,30.50
2023-02-11T21:11:57.287Z,39.30
2023-02-11T21:14:26.167Z,26.60
2023-02-11T21:16:54.587Z,23.30
2023-02-11T21:19:22.535Z,22.60
2023-02-11T21:21:50.479Z,17.80
2023-02-11T21:24:18.534Z,24.50
2023-02-11T21:26:46.607Z,26.10
2023-02-11T21:29:14.527Z,26.80
2023-02-11T21:31:43.138Z,24.60
2023-02-11T21:34:11.251Z,26.10
2023-02-11T21:36:39.262Z,27.30
2023-02-11T21:39:07.557Z,25.60
2023-02-11T21:41:35.572Z,26.20
2023-02-11T21:44:03.443Z,41.10
2023-02-11T21:46:31.530Z,39.60
2023-02-11T21:49:00.531Z,29.90
2023-02-11T21:51:28.749Z,36.20
2023-02-11T21:53:59.796Z,30.90
2023-02-11T21:56:29.715Z,25.40
2023-02-11T21:58:59.644Z,39.10
2023-02-11T22:01:33.299Z,30.20
2023-02-11T22:04:01.249Z,32.30
2023-02-11T22:06:31.795Z,22.90
2023-02-11T22:09:04.678Z,24.40
2023-02-11T22:11:32.963Z,24.60
2023-02-11T22:14:00.910Z,33.80
2023-02-11T22:16:30.176Z,54.60
2023-02-11T22:18:59.069Z,41.20
2023-02-11T22:21:27.399Z,26.70
2023-02-11T22:23:56.342Z,29.40
2023-02-11T22:26:27.000Z,31.90
2023-02-11T22:28:55.358Z,28.90
2023-02-11T22:31:32.705Z,26.50
2023-02-11T22:34:01.742Z,30.30
2023-02-11T22:36:35.807Z,30.70
2023-02-11T22:39:10.725Z,24.70
2023-02-11T22:41:41.357Z,22.90
2023-02-11T22:44:09.943Z,40.60
2023-02-11T22:46:38.679Z,28.60
2023-02-11T22:49:07.563Z,32.10
2023-02-11T22:51:35.542Z,29.40
2023-02-11T22:54:06.480Z,26.40
2023-02-11T22:56:35.127Z,39.70
2023-02-11T22:59:08.249Z,28.70
2023-02-11T23:01:36.543Z,30.60
2023-02-11T23:04:06.819Z,34.70
2023-02-11T23:06:35.344Z,28.50
2023-02-11T23:09:08.517Z,24.70
2023-02-11T23:11:36.454Z,28.20
2023-02-11T23:14:04.461Z,27.20
2023-02-11T23:16:34.888Z,49.50
2023-02-11T23:19:06.121Z,64.40
2023-02-11T23:21:36.544Z,33.40
2023-02-11T23:24:11.616Z,37.50
2023-02-11T23:26:41.703Z,30.10
2023-02-11T23:29:11.222Z,33.10
2023-02-11T23:31:43.465Z,31.90
2023-02-11T23:34:12.840Z,35.50
2023-02-11T23:36:40.638Z,28.30
2023-02-11T23:39:08.623Z,32.30
2023-02-11T23:41:36.729Z,52.80
2023-02-11T23:44:04.772Z,35.50
2023-02-11T23:46:32.760Z,106.90
2023-02-11T23:49:00.551Z,64.90
2023-02-11T23:51:28.621Z,33.80
2023-02-11T23:53:56.830Z,62.20
2023-02-11T23:56:27.169Z,26.30
2023-02-11T23:58:58.442Z,52.00
